Time;durP1;ratioP1;P1;durP2;ratioP2;P2;SDS_P1;SDS_P2;PMS_P1;PMS_P2;Temp;Humidity;BMP_temperature;BMP_pressure;BME280_temperature;BME280_humidity;BME280_pressure;Samples;Min_cycle;Max_cycle;Signal;HPM_P1;HPM_P2
2022/05/31 00:01:43;;;;;;;2.42;1.50;;;13.80;53.60;;;;;;5101660;28;20024;-73
2022/05/31 00:04:09;;;;;;;2.45;1.42;;;13.70;53.70;;;;;;5110285;28;20031;-73
2022/05/31 00:06:34;;;;;;;1.90;1.48;;;13.70;53.70;;;;;;5099929;28;20024;-73
2022/05/31 00:09:00;;;;;;;3.97;2.05;;;13.70;53.80;;;;;;5106702;28;20127;-73
2022/05/31 00:11:26;;;;;;;3.30;1.50;;;13.70;54.10;;;;;;5107114;28;20055;-73
2022/05/31 00:13:52;;;;;;;1.90;1.70;;;13.70;54.10;;;;;;5099587;28;20043;-73
2022/05/31 00:16:17;;;;;;;3.78;1.48;;;13.60;54.00;;;;;;5111848;28;20039;-73
2022/05/31 00:18:43;;;;;;;2.08;1.58;;;13.60;54.20;;;;;;5099832;28;20026;-73
2022/05/31 00:21:10;;;;;;;2.40;1.52;;;13.60;54.20;;;;;;5105671;28;20028;-73
2022/05/31 00:23:42;;;;;;;2.42;1.52;;;13.50;54.50;;;;;;5107139;28;20062;-73
2022/05/31 00:26:08;;;;;;;3.70;1.80;;;13.50;54.70;;;;;;5114196;28;20422;-73
2022/05/31 00:28:35;;;;;;;2.38;1.60;;;13.50;54.60;;;;;;5098335;28;20036;-73
2022/05/31 00:31:02;;;;;;;11.50;1.98;;;13.50;54.80;;;;;;5112320;28;20109;-73
2022/05/31 00:33:29;;;;;;;1.88;1.60;;;13.40;54.90;;;;;;5096986;27;20047;-73
2022/05/31 00:35:54;;;;;;;3.50;1.85;;;13.40;55.30;;;;;;5075164;28;20024;-73
2022/05/31 00:38:21;;;;;;;2.67;1.60;;;13.40;55.20;;;;;;5074855;28;20028;-73
2022/05/31 00:40:47;;;;;;;2.90;1.73;;;13.40;55.40;;;;;;5073508;28;20482;-73
2022/05/31 00:43:20;;;;;;;2.35;1.48;;;13.40;55.40;;;;;;5074728;28;20368;-73
2022/05/31 00:46:02;;;;;;;2.28;1.67;;;13.30;55.50;;;;;;5074635;28;20122;-73
2022/05/31 00:48:38;;;;;;;2.05;1.50;;;13.30;55.60;;;;;;5074686;28;20077;-73
2022/05/31 00:51:13;;;;;;;2.22;1.75;;;13.20;55.40;;;;;;5074895;28;20028;-73
2022/05/31 00:53:46;;;;;;;3.45;1.75;;;13.20;55.40;;;;;;5074491;28;20040;-73
2022/05/31 00:56:21;;;;;;;3.00;1.80;;;13.20;55.40;;;;;;5074196;28;20028;-73
2022/05/31 00:59:09;;;;;;;2.78;1.88;;;13.20;55.70;;;;;;5073184;28;20396;-73
2022/05/31 01:01:39;;;;;;;3.10;1.70;;;13.20;56.10;;;;;;5074341;28;20020;-73
2022/05/31 01:04:05;;;;;;;2.38;1.70;;;13.10;55.60;;;;;;5076157;28;22380;-73
2022/05/31 01:06:36;;;;;;;2.45;1.63;;;13.10;55.60;;;;;;5094187;28;20031;-73
2022/05/31 01:09:03;;;;;;;2.33;1.60;;;13.10;55.70;;;;;;5093795;28;20621;-73
2022/05/31 01:11:33;;;;;;;2.75;1.65;;;13.00;55.90;;;;;;5093878;28;20103;-73
2022/05/31 01:13:58;;;;;;;4.15;2.00;;;13.00;55.90;;;;;;5092867;28;20117;-73
2022/05/31 01:16:24;;;;;;;2.38;1.70;;;13.00;56.00;;;;;;5092812;28;20063;-73
2022/05/31 01:18:50;;;;;;;4.05;2.03;;;13.00;56.00;;;;;;5092746;28;20026;-73
2022/05/31 01:21:16;;;;;;;2.17;1.85;;;13.00;56.20;;;;;;5092977;28;20375;-73
2022/05/31 01:24:03;;;;;;;2.47;1.70;;;12.90;56.10;;;;;;5092272;28;20056;-73
2022/05/31 01:27:08;;;;;;;3.10;1.67;;;12.90;56.40;;;;;;5093984;28;20028;-73
2022/05/31 01:29:37;;;;;;;4.07;2.38;;;12.90;56.40;;;;;;5093912;28;20035;-73
2022/05/31 01:32:07;;;;;;;3.47;1.98;;;12.90;56.60;;;;;;5093795;28;20037;-73
2022/05/31 01:34:59;;;;;;;3.47;2.40;;;12.90;56.70;;;;;;5093757;28;20032;-73
2022/05/31 01:37:45;;;;;;;2.05;1.85;;;12.80;56.90;;;;;;5093821;28;20074;-73
2022/05/31 01:40:18;;;;;;;3.20;2.30;;;12.80;56.80;;;;;;5093530;28;20463;-73
2022/05/31 01:42:46;;;;;;;4.22;2.70;;;12.80;57.20;;;;;;5093781;28;20030;-73
2022/05/31 01:45:22;;;;;;;2.58;1.92;;;12.80;56.90;;;;;;5093602;28;20024;-73
2022/05/31 01:47:49;;;;;;;3.63;2.35;;;12.80;57.10;;;;;;5092429;28;20032;-73
2022/05/31 01:50:18;;;;;;;3.30;2.13;;;12.70;57.20;;;;;;5093288;28;20456;-73
2022/05/31 01:52:47;;;;;;;3.20;2.00;;;12.70;57.30;;;;;;5093483;28;20093;-73
2022/05/31 01:55:17;;;;;;;4.07;1.60;;;12.70;57.60;;;;;;5092228;28;20031;-73
2022/05/31 01:57:48;;;;;;;2.53;2.03;;;12.70;57.50;;;;;;5093240;28;20078;-73
2022/05/31 02:00:16;;;;;;;2.10;1.85;;;12.70;57.40;;;;;;5093444;28;20017;-73
2022/05/31 02:02:47;;;;;;;3.55;1.80;;;12.70;57.40;;;;;;5093417;28;20110;-73
2022/05/31 02:05:13;;;;;;;3.42;2.08;;;12.70;57.40;;;;;;5093218;28;20024;-73
2022/05/31 02:07:39;;;;;;;5.80;2.30;;;12.70;57.40;;;;;;5093118;28;20047;-73
2022/05/31 02:10:05;;;;;;;4.85;3.03;;;12.70;57.70;;;;;;5091936;28;20383;-73
2022/05/31 02:12:31;;;;;;;2.47;1.85;;;12.70;57.70;;;;;;5091959;28;20052;-73
2022/05/31 02:14:57;;;;;;;3.75;2.33;;;12.80;57.60;;;;;;5093274;28;20032;-73
2022/05/31 02:17:24;;;;;;;3.30;2.00;;;12.70;57.60;;;;;;5093259;28;20035;-73
2022/05/31 02:19:50;;;;;;;2.92;1.98;;;12.80;57.60;;;;;;5091915;28;20024;-73
2022/05/31 02:22:19;;;;;;;4.47;1.95;;;12.70;57.40;;;;;;5091794;28;20115;-73
2022/05/31 02:24:45;;;;;;;3.70;2.08;;;12.70;57.40;;;;;;5093232;28;20040;-73
2022/05/31 02:27:11;;;;;;;3.05;1.95;;;12.70;57.50;;;;;;5091537;28;20452;-73
2022/05/31 02:29:39;;;;;;;2.58;1.60;;;12.70;57.60;;;;;;5092509;28;20085;-73
2022/05/31 02:32:08;;;;;;;3.20;1.80;;;12.80;57.60;;;;;;5093056;28;20021;-73
2022/05/31 02:34:36;;;;;;;2.10;1.90;;;12.70;57.40;;;;;;5077762;28;20041;-73
2022/05/31 02:37:03;;;;;;;3.85;1.98;;;12.70;57.40;;;;;;5072863;28;20025;-73
2022/05/31 02:39:29;;;;;;;3.72;1.83;;;12.70;57.30;;;;;;5071330;28;20029;-73
2022/05/31 02:41:56;;;;;;;2.60;1.90;;;12.70;57.60;;;;;;5071508;28;20029;-73
2022/05/31 02:44:23;;;;;;;2.38;1.65;;;12.70;57.50;;;;;;5072583;28;20439;-73
2022/05/31 02:46:49;;;;;;;2.40;1.67;;;12.70;57.40;;;;;;5072736;28;20028;-73
2022/05/31 02:49:15;;;;;;;2.47;1.70;;;12.70;57.40;;;;;;5072686;28;20029;-73
2022/05/31 02:51:43;;;;;;;1.83;1.48;;;12.70;57.40;;;;;;5071421;28;20468;-73
2022/05/31 02:54:11;;;;;;;2.88;1.60;;;12.70;57.40;;;;;;5072659;28;20028;-73
2022/05/31 02:56:38;;;;;;;2.30;1.48;;;12.70;57.40;;;;;;5072391;28;20044;-73
2022/05/31 02:59:05;;;;;;;5.00;1.40;;;12.70;57.30;;;;;;5072633;28;20060;-73
2022/05/31 03:01:35;;;;;;;2.70;1.70;;;12.70;57.30;;;;;;5071272;28;20029;-73
2022/05/31 03:04:01;;;;;;;1.95;1.48;;;12.70;57.40;;;;;;5070726;28;20484;-73
2022/05/31 03:06:27;;;;;;;5.03;1.77;;;12.70;57.40;;;;;;5087616;28;20047;-73
2022/05/31 03:08:52;;;;;;;1.92;1.60;;;12.70;57.50;;;;;;5092686;28;20054;-73
2022/05/31 03:11:38;;;;;;;3.40;2.03;;;12.70;57.40;;;;;;5090968;28;20531;-73
2022/05/31 03:14:13;;;;;;;2.22;1.90;;;12.70;57.60;;;;;;5092679;28;20028;-73
2022/05/31 03:16:42;;;;;;;2.80;1.65;;;12.70;57.60;;;;;;5092873;28;20024;-73
2022/05/31 03:19:18;;;;;;;2.22;1.73;;;12.70;57.40;;;;;;5092525;28;20055;-73
2022/05/31 03:21:50;;;;;;;2.35;1.60;;;12.70;57.60;;;;;;5091409;28;20032;-73
2022/05/31 03:24:20;;;;;;;2.13;1.50;;;12.80;57.60;;;;;;5091307;28;20032;-73
2022/05/31 03:26:49;;;;;;;3.28;1.75;;;12.80;57.60;;;;;;5092341;28;20023;-73
2022/05/31 03:29:15;;;;;;;2.15;1.60;;;12.80;57.70;;;;;;5092352;28;20492;-73
2022/05/31 03:31:41;;;;;;;2.75;1.63;;;12.80;57.70;;;;;;5091216;28;20032;-73
2022/05/31 03:34:07;;;;;;;2.97;1.42;;;12.90;57.70;;;;;;5081820;28;20143;-73
2022/05/31 03:36:33;;;;;;;2.58;1.50;;;12.90;57.70;;;;;;5070985;28;20229;-73
2022/05/31 03:39:00;;;;;;;2.42;1.50;;;13.00;57.70;;;;;;5071001;28;20496;-73
2022/05/31 03:41:26;;;;;;;2.80;1.70;;;13.00;57.70;;;;;;5074946;28;20025;-73
2022/05/31 03:43:51;;;;;;;2.25;1.60;;;13.00;57.70;;;;;;5075946;28;20025;-73
2022/05/31 03:46:17;;;;;;;2.35;1.60;;;13.10;57.70;;;;;;5075993;28;20029;-73
2022/05/31 03:48:44;;;;;;;1.80;1.60;;;13.20;57.80;;;;;;5082540;28;20016;-73
2022/05/31 03:51:11;;;;;;;4.28;2.15;;;13.20;57.50;;;;;;5096192;28;20069;-73
2022/05/31 03:53:38;;;;;;;4.82;2.00;;;13.30;57.50;;;;;;5094593;28;20414;-73
2022/05/31 03:56:10;;;;;;;4.18;2.00;;;13.40;57.50;;;;;;5095795;28;20032;-73
2022/05/31 03:58:36;;;;;;;2.38;1.90;;;13.40;57.40;;;;;;5095726;28;20044;-73
2022/05/31 04:01:02;;;;;;;3.53;1.60;;;13.50;57.30;;;;;;5095733;28;20107;-73
2022/05/31 04:03:28;;;;;;;2.67;1.65;;;13.50;57.20;;;;;;5095632;28;20039;-73
2022/05/31 04:05:54;;;;;;;4.75;2.42;;;13.60;57.10;;;;;;5095297;28;20036;-73
2022/05/31 04:08:21;;;;;;;3.53;2.33;;;13.70;57.10;;;;;;5095464;28;20052;-73
2022/05/31 04:10:47;;;;;;;3.72;2.00;;;13.70;57.00;;;;;;5093859;28;20036;-73
2022/05/31 04:13:15;;;;;;;3.42;1.98;;;13.80;57.00;;;;;;5095420;28;20059;-73
2022/05/31 04:15:41;;;;;;;4.35;2.22;;;13.80;56.90;;;;;;5094075;28;20468;-73
2022/05/31 04:18:08;;;;;;;2.85;1.58;;;13.90;56.80;;;;;;5095359;28;20426;-73
2022/05/31 04:20:37;;;;;;;2.60;1.70;;;14.00;56.70;;;;;;5095587;28;20016;-73
2022/05/31 04:25:48;;;;;;;2.95;2.03;;;14.10;56.50;;;;;;5094874;28;20047;-73
2022/05/31 04:28:15;;;;;;;2.97;1.90;;;14.20;56.30;;;;;;5095071;28;20066;-73
2022/05/31 04:30:44;;;;;;;2.63;2.10;;;14.20;56.20;;;;;;5093764;28;20052;-73
2022/05/31 04:33:10;;;;;;;4.03;1.92;;;14.30;56.20;;;;;;5095015;28;20024;-73
2022/05/31 04:35:37;;;;;;;5.63;1.98;;;14.40;56.10;;;;;;5093596;28;20036;-73
2022/05/31 04:38:03;;;;;;;2.85;1.70;;;14.40;56.10;;;;;;5094615;28;20498;-73
2022/05/31 04:40:29;;;;;;;2.65;1.50;;;14.50;56.10;;;;;;5095199;28;20020;-73
2022/05/31 04:42:54;;;;;;;4.13;2.33;;;14.60;56.00;;;;;;5093571;28;20035;-73
2022/05/31 04:45:20;;;;;;;3.25;2.10;;;14.70;56.60;;;;;;5093391;28;20036;-73
2022/05/31 04:47:46;;;;;;;3.38;2.15;;;14.70;56.00;;;;;;5094666;28;20031;-73
2022/05/31 04:50:12;;;;;;;3.97;1.88;;;14.80;55.90;;;;;;5093379;28;20442;-73
2022/05/31 04:52:39;;;;;;;3.97;2.22;;;14.90;55.80;;;;;;5093083;28;20115;-73
2022/05/31 04:55:05;;;;;;;2.20;1.85;;;14.90;55.50;;;;;;5094335;28;20024;-73
2022/05/31 04:57:31;;;;;;;3.83;2.80;;;15.00;55.30;;;;;;5093309;28;20077;-73
2022/05/31 04:59:56;;;;;;;5.03;3.05;;;15.10;55.20;;;;;;5094490;28;20032;-73
2022/05/31 05:02:22;;;;;;;7.15;3.95;;;15.10;55.10;;;;;;5092834;28;20028;-73
2022/05/31 05:04:48;;;;;;;9.23;5.93;;;15.20;55.10;;;;;;5092207;28;20039;-73
2022/05/31 05:07:14;;;;;;;9.35;5.68;;;15.30;55.00;;;;;;5076712;28;20098;-73
2022/05/31 05:09:39;;;;;;;10.32;5.60;;;15.30;54.80;;;;;;5072339;28;20028;-73
2022/05/31 05:12:05;;;;;;;8.75;5.05;;;15.40;54.80;;;;;;5074078;28;20079;-73
2022/05/31 05:14:31;;;;;;;7.13;3.80;;;15.50;54.80;;;;;;5072625;28;20033;-73
2022/05/31 05:16:58;;;;;;;5.40;3.22;;;15.60;54.90;;;;;;5073519;28;20086;-73
2022/05/31 05:19:23;;;;;;;4.90;2.75;;;15.70;54.60;;;;;;5073744;28;20069;-73
2022/05/31 05:21:49;;;;;;;5.35;2.70;;;15.80;54.50;;;;;;5073960;28;20099;-73
2022/05/31 05:24:15;;;;;;;6.78;2.97;;;15.90;54.70;;;;;;5073435;28;20508;-73
2022/05/31 05:26:41;;;;;;;4.30;2.67;;;16.00;54.70;;;;;;5072281;28;20158;-73
2022/05/31 05:31:56;;;;;;;2.60;1.98;;;16.30;54.70;;;;;;5073181;28;20031;-73
2022/05/31 05:34:22;;;;;;;4.95;3.15;;;16.40;54.40;;;;;;5083294;28;20043;-73
2022/05/31 05:36:48;;;;;;;7.13;2.63;;;16.60;54.10;;;;;;5092226;28;20460;-74
2022/05/31 05:39:14;;;;;;;3.97;2.53;;;16.70;53.90;;;;;;5093712;28;20031;-73
2022/05/31 05:41:40;;;;;;;5.53;2.38;;;16.90;53.70;;;;;;5093798;28;20024;-73
2022/05/31 05:44:07;;;;;;;3.80;2.33;;;17.10;53.50;;;;;;5093244;28;20068;-73
2022/05/31 05:46:33;;;;;;;3.10;2.30;;;17.20;53.10;;;;;;5092037;28;20115;-73
2022/05/31 05:48:59;;;;;;;3.65;2.58;;;17.40;53.00;;;;;;5091718;28;20114;-73
2022/05/31 05:51:27;;;;;;;2.65;2.38;;;17.50;52.70;;;;;;5091999;28;20028;-73
2022/05/31 05:53:54;;;;;;;5.05;2.50;;;17.60;52.60;;;;;;5093248;28;20112;-73
2022/05/31 05:56:20;;;;;;;9.63;2.83;;;17.80;52.30;;;;;;5093158;28;20573;-73
2022/05/31 05:58:46;;;;;;;4.47;2.22;;;17.90;51.70;;;;;;5091547;28;20024;-73
2022/05/31 06:01:15;;;;;;;2.90;2.17;;;18.00;51.70;;;;;;5092819;28;20332;-73
2022/05/31 06:03:54;;;;;;;3.25;2.03;;;18.20;51.30;;;;;;5091344;28;20034;-73
2022/05/31 06:06:23;;;;;;;8.55;2.28;;;18.30;51.10;;;;;;5093108;28;20034;-73
2022/05/31 06:09:12;;;;;;;4.03;2.13;;;18.50;50.80;;;;;;5093141;28;20461;-73
2022/05/31 06:11:51;;;;;;;2.80;1.80;;;18.60;50.50;;;;;;5090945;28;20044;-73
2022/05/31 06:14:23;;;;;;;2.65;1.85;;;18.80;50.10;;;;;;5092775;28;20028;-73
2022/05/31 06:16:59;;;;;;;3.45;2.15;;;19.00;50.00;;;;;;5093279;28;20059;-73
2022/05/31 06:19:36;;;;;;;1.95;1.75;;;19.10;49.60;;;;;;5093235;28;20131;-73
2022/05/31 06:22:04;;;;;;;2.38;1.80;;;19.30;49.20;;;;;;5091742;28;20024;-73
2022/05/31 06:24:32;;;;;;;6.57;2.42;;;19.40;49.00;;;;;;5091579;28;20032;-73
2022/05/31 06:26:58;;;;;;;3.08;2.22;;;19.40;48.50;;;;;;5093012;28;20036;-73
2022/05/31 06:29:24;;;;;;;3.90;1.98;;;19.50;47.90;;;;;;5091193;28;20069;-73
2022/05/31 06:31:50;;;;;;;2.58;1.75;;;19.50;47.30;;;;;;5092761;28;20024;-73
2022/05/31 06:34:18;;;;;;;4.25;1.85;;;19.50;47.00;;;;;;5091699;28;20464;-73
2022/05/31 06:36:44;;;;;;;5.53;2.25;;;19.50;47.30;;;;;;5093093;28;20024;-73
2022/05/31 06:39:10;;;;;;;3.92;1.80;;;19.50;46.50;;;;;;5092771;28;20035;-73
2022/05/31 06:41:36;;;;;;;2.22;1.55;;;19.40;46.80;;;;;;5091574;28;20028;-73
2022/05/31 06:44:03;;;;;;;1.58;1.45;;;19.40;47.00;;;;;;5092754;28;20062;-73
2022/05/31 06:46:29;;;;;;;2.63;1.63;;;19.40;47.20;;;;;;5091370;28;20024;-73
2022/05/31 06:48:57;;;;;;;2.78;1.70;;;19.40;47.50;;;;;;5091727;28;20107;-73
2022/05/31 06:56:54;;;;;;;3.25;1.83;;;19.50;46.40;;;;;;5093020;28;20063;-73
2022/05/31 06:59:19;;;;;;;3.85;2.38;;;19.60;46.20;;;;;;5092445;28;20028;-73
2022/05/31 07:01:47;;;;;;;2.35;1.85;;;19.60;46.10;;;;;;5092778;28;20162;-73
2022/05/31 07:04:13;;;;;;;3.53;1.80;;;19.70;46.40;;;;;;5092843;28;20383;-73
2022/05/31 07:06:39;;;;;;;3.33;1.92;;;19.80;46.00;;;;;;5086644;28;20349;-74
2022/05/31 07:09:05;;;;;;;4.57;1.40;;;19.80;46.20;;;;;;5092228;28;20058;-74
2022/05/31 07:11:31;;;;;;;2.08;1.48;;;19.90;45.20;;;;;;5091521;28;20020;-74
2022/05/31 07:13:57;;;;;;;2.10;1.50;;;19.90;44.50;;;;;;5092319;28;20392;-73
2022/05/31 07:16:23;;;;;;;3.78;1.52;;;20.00;44.80;;;;;;5096540;28;20028;-73
2022/05/31 07:18:49;;;;;;;4.75;1.70;;;20.00;44.20;;;;;;5095236;28;20352;-74
2022/05/31 07:21:15;;;;;;;2.65;1.88;;;20.00;43.70;;;;;;5096235;28;20081;-73
2022/05/31 07:23:41;;;;;;;2.53;1.52;;;20.00;43.70;;;;;;5095463;28;20078;-74
2022/05/31 07:26:08;;;;;;;1.90;1.38;;;20.00;44.10;;;;;;5096432;28;20115;-74
2022/05/31 07:28:34;;;;;;;2.03;1.20;;;19.90;43.40;;;;;;5094912;28;20035;-74
2022/05/31 07:31:00;;;;;;;1.67;1.45;;;19.90;44.10;;;;;;5094860;28;20024;-74
2022/05/31 07:33:26;;;;;;;2.35;1.55;;;19.80;43.60;;;;;;5093851;28;20357;-74
2022/05/31 07:35:52;;;;;;;2.75;1.67;;;19.80;44.00;;;;;;5076388;28;20525;-74
2022/05/31 07:38:23;;;;;;;2.75;1.80;;;19.80;44.10;;;;;;5093937;28;20032;-74
2022/05/31 07:40:50;;;;;;;5.38;1.98;;;19.80;44.00;;;;;;5095802;28;20480;-74
2022/05/31 07:43:16;;;;;;;3.50;2.10;;;19.80;44.00;;;;;;5096061;28;20049;-73
2022/05/31 07:45:42;;;;;;;4.55;1.98;;;19.80;43.60;;;;;;5095646;28;20068;-74
2022/05/31 07:48:08;;;;;;;9.32;2.58;;;19.80;43.40;;;;;;5094566;28;20028;-74
2022/05/31 07:50:35;;;;;;;7.93;2.25;;;19.80;43.40;;;;;;5096101;28;20028;-74
2022/05/31 07:53:03;;;;;;;7.00;2.10;;;19.80;43.70;;;;;;5094575;28;20483;-74
2022/05/31 07:55:30;;;;;;;4.50;2.33;;;19.90;43.90;;;;;;5094146;28;20036;-74
2022/05/31 08:00:41;;;;;;;3.63;2.35;;;20.00;43.70;;;;;;5095269;28;20487;-74
2022/05/31 08:03:08;;;;;;;5.35;2.10;;;20.10;43.40;;;;;;5095647;28;20020;-74
2022/05/31 08:05:37;;;;;;;4.53;2.53;;;20.20;43.40;;;;;;5095124;28;20028;-74
2022/05/31 08:08:03;;;;;;;5.03;2.40;;;20.20;43.70;;;;;;5094345;28;20434;-74
2022/05/31 08:10:29;;;;;;;5.72;2.33;;;20.30;43.20;;;;;;5094063;28;20412;-74
2022/05/31 08:12:55;;;;;;;17.20;4.22;;;20.30;43.00;;;;;;5095490;28;20039;-74
2022/05/31 08:15:21;;;;;;;9.75;3.30;;;20.40;43.40;;;;;;5095468;28;20062;-74
2022/05/31 08:17:47;;;;;;;5.18;2.65;;;20.40;42.60;;;;;;5094919;28;20089;-74
2022/05/31 08:20:16;;;;;;;5.07;2.97;;;20.40;42.60;;;;;;5095723;28;20111;-74
2022/05/31 08:22:45;;;;;;;8.52;3.10;;;20.40;42.80;;;;;;5093955;28;20031;-74
2022/05/31 08:25:12;;;;;;;7.90;3.38;;;20.50;42.80;;;;;;5093296;28;20395;-74
2022/05/31 08:27:38;;;;;;;6.65;3.72;;;20.50;42.90;;;;;;5093659;28;20472;-74
2022/05/31 08:30:06;;;;;;;8.30;3.30;;;20.60;42.50;;;;;;5093556;28;20037;-74
2022/05/31 08:32:34;;;;;;;10.02;3.83;;;20.60;42.90;;;;;;5095167;28;20438;-74
2022/05/31 08:35:01;;;;;;;11.20;4.35;;;20.70;42.70;;;;;;5095213;28;20081;-74
2022/05/31 08:37:27;;;;;;;13.18;4.18;;;20.70;42.40;;;;;;5095198;28;20030;-74
2022/05/31 08:39:53;;;;;;;12.32;4.00;;;20.80;42.70;;;;;;5093829;28;20055;-74
2022/05/31 08:42:23;;;;;;;9.20;3.58;;;20.80;42.20;;;;;;5093593;28;20028;-74
2022/05/31 08:45:08;;;;;;;7.70;3.63;;;20.80;42.00;;;;;;5092970;28;20036;-74
2022/05/31 08:47:54;;;;;;;10.68;3.95;;;20.90;41.60;;;;;;5088359;28;20031;-74
2022/05/31 08:53:17;;;;;;;12.10;2.85;;;20.90;41.10;;;;;;5091557;28;20050;-74
2022/05/31 08:58:51;;;;;;;9.52;3.88;;;21.00;40.80;;;;;;5094616;28;20078;-74
2022/05/31 09:01:23;;;;;;;9.43;3.35;;;21.00;40.70;;;;;;5094643;28;20105;-74
2022/05/31 09:03:54;;;;;;;8.63;3.20;;;21.10;40.60;;;;;;5094578;28;20077;-74
2022/05/31 09:06:32;;;;;;;4.22;2.30;;;21.10;40.80;;;;;;5093248;28;20571;-74
2022/05/31 09:09:26;;;;;;;4.80;2.78;;;21.20;40.90;;;;;;5086416;28;20052;-75
2022/05/31 09:12:01;;;;;;;7.97;2.47;;;21.20;40.60;;;;;;5090631;28;20040;-75
2022/05/31 09:14:54;;;;;;;4.15;3.00;;;21.30;40.40;;;;;;5084803;28;20036;-75
2022/05/31 09:17:45;;;;;;;5.80;2.60;;;21.40;39.50;;;;;;5092263;28;20028;-74
2022/05/31 09:20:16;;;;;;;7.03;2.53;;;21.40;40.00;;;;;;5094320;28;20108;-74
2022/05/31 09:22:47;;;;;;;4.20;2.20;;;21.50;39.90;;;;;;5082883;28;20031;-73
2022/05/31 09:25:14;;;;;;;7.22;3.05;;;21.50;39.90;;;;;;5092222;28;20036;-73
2022/05/31 09:27:45;;;;;;;3.75;2.15;;;21.60;39.60;;;;;;5089793;28;20551;-73
2022/05/31 09:30:14;;;;;;;4.40;2.45;;;21.60;39.70;;;;;;5092443;28;20039;-73
2022/05/31 09:32:52;;;;;;;3.85;2.50;;;21.70;39.50;;;;;;5110238;28;20054;-72
2022/05/31 09:35:43;;;;;;;5.22;2.65;;;21.80;39.40;;;;;;5097301;28;20383;-72
2022/05/31 09:38:27;;;;;;;11.65;2.05;;;21.80;39.40;;;;;;5083073;28;20020;-72
2022/05/31 09:41:08;;;;;;;2.40;1.77;;;21.90;39.10;;;;;;5092820;28;20115;-72
2022/05/31 09:43:37;;;;;;;3.17;2.00;;;21.90;38.50;;;;;;5092618;28;20043;-72
2022/05/31 09:46:20;;;;;;;5.95;2.15;;;22.00;37.50;;;;;;5093006;28;20040;-72
2022/05/31 09:48:51;;;;;;;4.03;1.65;;;22.00;37.90;;;;;;5088209;28;20021;-72
2022/05/31 09:51:37;;;;;;;6.18;1.92;;;22.10;38.30;;;;;;5076683;28;20032;-72
2022/05/31 09:57:06;;;;;;;4.47;2.22;;;22.20;37.70;;;;;;5083355;28;20106;-72
2022/05/31 09:59:38;;;;;;;5.30;1.90;;;22.30;37.70;;;;;;5092297;28;20480;-71
2022/05/31 10:02:24;;;;;;;2.80;1.58;;;22.40;37.20;;;;;;5093172;28;20023;-73
2022/05/31 10:04:50;;;;;;;6.55;2.45;;;22.40;37.40;;;;;;5090925;28;20143;-73
2022/05/31 10:07:37;;;;;;;3.85;2.55;;;22.50;35.70;;;;;;5095701;28;20052;-72
2022/05/31 10:10:11;;;;;;;4.80;2.33;;;22.60;36.70;;;;;;5091334;28;20032;-73
2022/05/31 10:12:39;;;;;;;2.25;1.50;;;22.70;35.20;;;;;;5092121;28;20073;-72
2022/05/31 10:15:07;;;;;;;5.53;1.50;;;22.80;35.40;;;;;;5092955;28;20059;-71
2022/05/31 10:17:37;;;;;;;7.25;2.00;;;22.80;35.60;;;;;;5092859;28;20367;-73
2022/05/31 10:20:24;;;;;;;4.15;1.77;;;22.90;35.10;;;;;;5091417;28;20436;-73
2022/05/31 10:22:50;;;;;;;2.88;1.65;;;22.90;34.90;;;;;;5090385;28;20019;-73
2022/05/31 10:25:47;;;;;;;5.18;1.52;;;23.00;34.50;;;;;;5084175;28;20035;-73
2022/05/31 10:28:29;;;;;;;2.10;1.50;;;23.00;34.70;;;;;;5092881;28;20028;-73
2022/05/31 10:31:32;;;;;;;1.80;1.20;;;23.10;34.80;;;;;;5093245;28;20370;-73
2022/05/31 10:34:04;;;;;;;8.93;1.77;;;23.10;34.90;;;;;;5091467;28;20415;-73
2022/05/31 10:36:57;;;;;;;2.15;1.35;;;23.20;35.10;;;;;;5093325;28;20032;-73
2022/05/31 10:39:36;;;;;;;1.80;1.13;;;23.30;35.30;;;;;;5091816;28;20095;-73
2022/05/31 10:42:07;;;;;;;8.93;1.90;;;23.30;34.70;;;;;;5092954;28;20469;-73
2022/05/31 10:44:44;;;;;;;1.45;1.15;;;23.40;34.40;;;;;;5093292;28;20035;-73
2022/05/31 10:47:16;;;;;;;2.10;1.10;;;23.50;34.40;;;;;;5091738;28;20028;-73
2022/05/31 10:49:45;;;;;;;3.00;1.50;;;23.60;34.40;;;;;;5093535;28;20027;-73
2022/05/31 10:52:41;;;;;;;1.45;1.00;;;23.60;33.70;;;;;;5097183;28;20020;-74
2022/05/31 10:55:34;;;;;;;2.35;1.48;;;23.70;34.30;;;;;;5095718;28;20113;-74
2022/05/31 10:58:25;;;;;;;1.33;0.95;;;23.70;33.30;;;;;;5095825;28;20391;-73
2022/05/31 11:00:56;;;;;;;3.47;1.33;;;23.80;31.60;;;;;;5097166;28;20055;-74
2022/05/31 11:04:00;;;;;;;2.03;1.23;;;23.80;30.40;;;;;;5096689;28;20028;-72
2022/05/31 11:06:29;;;;;;;2.80;1.27;;;23.90;31.70;;;;;;5095646;28;20060;-73
2022/05/31 11:12:15;;;;;;;4.25;2.10;;;24.00;30.00;;;;;;5076401;28;20031;-72
2022/05/31 11:15:27;;;;;;;4.20;1.77;;;24.10;30.10;;;;;;5076080;28;20115;-72
2022/05/31 11:18:30;;;;;;;7.72;1.50;;;24.10;30.50;;;;;;5062696;28;20396;-73
2022/05/31 11:21:00;;;;;;;1.85;1.10;;;24.20;30.00;;;;;;5076083;28;20059;-73
2022/05/31 11:23:50;;;;;;;2.15;0.95;;;24.30;28.80;;;;;;5076216;28;20025;-73
2022/05/31 11:26:37;;;;;;;1.83;0.90;;;24.40;28.90;;;;;;5075997;28;20040;-73
2022/05/31 11:29:33;;;;;;;3.35;1.30;;;24.40;28.00;;;;;;5074913;28;20023;-73
2022/05/31 11:32:24;;;;;;;2.08;1.20;;;24.50;28.30;;;;;;5074818;28;20375;-73
2022/05/31 11:35:10;;;;;;;3.78;1.27;;;24.60;27.90;;;;;;5076386;28;20028;-73
2022/05/31 11:38:02;;;;;;;2.97;1.55;;;24.60;27.70;;;;;;5082988;28;20030;-73
2022/05/31 11:41:02;;;;;;;2.95;1.20;;;24.70;27.80;;;;;;5096720;28;20081;-72
2022/05/31 11:43:56;;;;;;;2.92;1.40;;;24.80;27.90;;;;;;5094971;28;20035;-73
2022/05/31 11:46:31;;;;;;;9.10;1.80;;;24.90;28.00;;;;;;5094928;28;20480;-73
2022/05/31 11:49:03;;;;;;;3.60;1.60;;;24.90;27.50;;;;;;5095944;28;20022;-73
2022/05/31 11:51:47;;;;;;;3.97;1.60;;;25.00;27.00;;;;;;5096059;28;20024;-73
2022/05/31 11:54:28;;;;;;;;;;;25.00;27.30;;;;;;5096425;28;20050;-73
2022/05/31 11:57:06;;;;;;;2.55;1.40;;;25.20;28.50;;;;;;5094635;28;19910;-72
2022/05/31 11:59:41;;;;;;;7.07;1.70;;;25.20;26.60;;;;;;5094635;28;20047;-73
2022/05/31 12:02:26;;;;;;;3.15;1.60;;;25.20;26.90;;;;;;5094954;28;20020;-72
2022/05/31 12:05:01;;;;;;;3.38;1.35;;;25.20;27.30;;;;;;5094279;28;20107;-72
2022/05/31 12:07:37;;;;;;;1.88;1.17;;;25.30;27.00;;;;;;5095672;28;20086;-74
2022/05/31 12:10:22;;;;;;;3.85;1.17;;;25.30;26.90;;;;;;5094748;28;20029;-73
2022/05/31 12:12:49;;;;;;;4.28;1.70;;;25.40;27.50;;;;;;5095623;28;20030;-73
2022/05/31 12:15:21;;;;;;;3.42;1.60;;;25.50;27.10;;;;;;5095596;28;20049;-74
2022/05/31 12:18:15;;;;;;;2.80;1.30;;;25.50;26.00;;;;;;5095613;28;20491;-73
2022/05/31 12:20:48;;;;;;;4.25;1.70;;;25.60;26.10;;;;;;5080452;28;20035;-73
2022/05/31 12:23:37;;;;;;;2.73;1.10;;;25.60;26.70;;;;;;5094025;28;20028;-73
2022/05/31 12:26:21;;;;;;;2.17;1.40;;;25.70;27.10;;;;;;5093804;28;20119;-73
2022/05/31 12:29:05;;;;;;;3.28;1.40;;;25.70;26.60;;;;;;5130345;27;20102;-73
2022/05/31 12:31:33;;;;;;;;;;;25.80;26.70;;;;;;5114730;28;20026;-73
2022/05/31 12:34:21;;;;;;;7.05;1.48;;;25.90;27.70;;;;;;5114208;28;19904;-73
2022/05/31 12:37:14;;;;;;;2.83;1.58;;;26.00;27.00;;;;;;5086490;28;20115;-73
2022/05/31 12:39:42;;;;;;;4.63;2.17;;;26.00;26.90;;;;;;5095177;28;20020;-73
2022/05/31 12:42:17;;;;;;;3.15;1.63;;;26.10;27.10;;;;;;5093190;28;20020;-73
2022/05/31 12:44:48;;;;;;;3.95;1.60;;;26.20;27.10;;;;;;5093075;28;20059;-73
2022/05/31 12:47:27;;;;;;;3.75;1.83;;;26.20;26.80;;;;;;5094237;28;20472;-73
2022/05/31 12:50:01;;;;;;;5.35;1.55;;;26.20;26.40;;;;;;5094719;28;20102;-73
2022/05/31 12:53:31;;;;;;;8.68;2.28;;;26.30;26.70;;;;;;5093597;28;20027;-73
2022/05/31 12:55:55;;;;;;;3.45;1.38;;;26.40;26.80;;;;;;5092134;28;20028;-73
2022/05/31 12:58:43;;;;;;;6.28;2.22;;;26.40;27.00;;;;;;5094688;28;20464;-73
2022/05/31 13:01:11;;;;;;;5.35;1.98;;;26.50;27.20;;;;;;5093290;28;20024;-72
2022/05/31 13:03:57;;;;;;;2.45;1.38;;;26.60;27.40;;;;;;5094176;28;20036;-73
2022/05/31 13:07:02;;;;;;;3.30;1.30;;;26.70;27.60;;;;;;5093008;28;20032;-73
2022/05/31 13:09:32;;;;;;;;;;;26.90;27.60;;;;;;5091703;28;20044;-74
2022/05/31 13:21:03;;;;;;;2.70;1.27;;;27.50;27.20;;;;;;5094437;28;20023;-71
2022/05/31 13:23:37;;;;;;;2.60;1.20;;;27.70;27.00;;;;;;5094384;28;20024;-73
2022/05/31 13:26:20;;;;;;;4.80;1.13;;;27.90;26.80;;;;;;5093901;28;20467;-72
2022/05/31 13:29:07;;;;;;;3.83;1.35;;;28.20;26.90;;;;;;5094250;28;20024;-72
2022/05/31 13:31:44;;;;;;;8.60;1.50;;;28.80;27.30;;;;;;5092841;28;20024;-72
2022/05/31 13:34:10;;;;;;;6.22;1.83;;;29.30;26.20;;;;;;5093962;28;20031;-73
2022/05/31 13:36:48;;;;;;;2.80;1.52;;;29.80;25.60;;;;;;5094042;28;20047;-73
2022/05/31 13:39:16;;;;;;;4.55;1.95;;;30.30;25.60;;;;;;5092421;28;20028;-73
2022/05/31 13:42:16;;;;;;;5.35;1.45;;;30.80;24.70;;;;;;5092677;28;20483;-73
2022/05/31 13:44:42;;;;;;;5.22;1.75;;;31.50;25.30;;;;;;5092619;28;20452;-73
2022/05/31 13:47:12;;;;;;;4.38;1.75;;;32.00;23.20;;;;;;5093513;28;20106;-73
2022/05/31 13:49:43;;;;;;;7.43;2.10;;;32.30;22.50;;;;;;5093812;28;20429;-73